Wendell, NC

2:10 PM EDT on June 03, 2015 (GMT -0400)
Riley Hill-wendell,NC | | Change Station
CLOSE
Current Station
Personal Weather Station
Location: Wendell, NC
Elevation: 322 ft
Nearby Weather Stations

Elev 322 ft 35.87 °N, 78.40 °W | Updated 0 second ago

Overcast
Overcast
66.9 °F
Feels Like 66.9 °F
N
5.0
Wind Variable Wind from NE
Gusts 5.0 mph

Today
High -- | Low -- °F
--% Chance of Precip.
Yesterday
High -- | Low -- °F
Precip. -- in
5:58 AM 8:25 PM
Full, 99% visible
Pressure 30.09 in
Visibility 5.0 miles
Clouds Overcast 600 ft
Dew Point 65 °F
Humidity 94%
Rainfall 0.00 in
Snow Depth Not available.
UV 4 out of 12
Pollen .80 out of 12
Air Quality Not available.
Flu Activity No Activity
METAR KLHZ 031755Z AUTO 02005KT 5SM BR OVC006 18/17 A3009 RMK AO2

More Conditions Fewer Conditions

Pressure 30.09 in
Visibility 5.0 miles
Clouds Overcast 600 ft
Dew Point 65 °F
Humidity 94%
Rainfall 0.00 in
Snow Depth Not available.
UV 4 out of 12
Pollen .80 out of 12
Air Quality Not available.
Flu Activity No Activity
METAR KLHZ 031755Z AUTO 02005KT 5SM BR OVC006 18/17 A3009 RMK AO2

More Conditions Fewer Conditions

10-Day Weather Forecast

×

Almanac

Astronomy

Jun. 03, 2015 Rise Set
Actual Time
Civil Twilight
Nautical Twilight
Astronomical Twilight
Moon
Length of Visible Light
Length of Day
Tomorrow will be .
, % of the Moon is Illuminated

Today's Extremes

State Highs State Lows

Community

WunderPhotos

Upload Photos

1,826,268 photos uploaded!

WunderBlogs® & News

Nearby

Air Quality

  Air Quality AQ Index Pollutant
Not available.

Snow Depth

Station Depth Elevation

Earthquake Activity

City Distance Mag. Time & Date
Minimum magnitude displayed is 2.5.

Coastal Water Temperatures

Place Temperature

Stations

Nearby Weather Stations

Station Location Temp. Windchill Dew Point Humidity Wind Precip. Elev Updated Type